createdAt,value
2023-05-18T00:01:16.917Z,100.00
2023-05-18T00:03:43.847Z,100.00
2023-05-18T00:06:10.840Z,100.00
2023-05-18T00:08:38.630Z,100.00
2023-05-18T00:11:06.265Z,100.00
2023-05-18T00:13:33.110Z,100.00
2023-05-18T00:16:00.355Z,100.00
2023-05-18T00:18:28.421Z,100.00
2023-05-18T00:21:02.138Z,100.00
2023-05-18T00:23:31.280Z,100.00
2023-05-18T00:25:59.144Z,100.00
2023-05-18T00:28:26.291Z,100.00
2023-05-18T00:30:54.116Z,100.00
2023-05-18T00:33:21.218Z,100.00
2023-05-18T00:35:48.082Z,100.00
2023-05-18T00:38:17.962Z,100.00
2023-05-18T00:40:44.652Z,100.00
2023-05-18T00:43:11.624Z,100.00
2023-05-18T00:45:38.641Z,100.00
2023-05-18T00:48:06.099Z,100.00
2023-05-18T00:50:33.192Z,100.00
2023-05-18T00:53:00.635Z,100.00
2023-05-18T00:55:28.712Z,100.00
2023-05-18T00:57:57.271Z,100.00
2023-05-18T01:00:24.491Z,100.00
2023-05-18T01:02:51.921Z,100.00
2023-05-18T01:05:20.333Z,100.00
2023-05-18T01:07:48.135Z,100.00
2023-05-18T01:10:17.560Z,100.00
2023-05-18T01:13:02.877Z,100.00
2023-05-18T01:15:35.852Z,100.00
2023-05-18T01:18:22.069Z,100.00
2023-05-18T01:21:25.745Z,100.00
2023-05-18T01:24:04.580Z,100.00
2023-05-18T01:26:37.530Z,100.00
2023-05-18T01:29:10.028Z,100.00
2023-05-18T01:31:36.789Z,100.00
2023-05-18T01:34:05.005Z,100.00
2023-05-18T01:36:31.869Z,100.00
2023-05-18T01:39:02.059Z,100.00
2023-05-18T01:41:30.336Z,100.00
2023-05-18T01:44:18.426Z,100.00
2023-05-18T01:47:14.290Z,100.00
2023-05-18T01:49:55.914Z,100.00
2023-05-18T01:52:36.440Z,100.00
2023-05-18T01:55:05.212Z,100.00
2023-05-18T01:57:33.828Z,100.00
2023-05-18T02:00:00.778Z,100.00
2023-05-18T02:02:28.469Z,100.00
2023-05-18T02:04:55.695Z,100.00
2023-05-18T02:07:22.284Z,100.00
2023-05-18T02:09:49.221Z,100.00
2023-05-18T02:12:15.955Z,100.00
2023-05-18T02:14:42.722Z,100.00
2023-05-18T02:17:09.496Z,100.00
2023-05-18T02:19:39.592Z,100.00
2023-05-18T02:22:07.342Z,100.00
2023-05-18T02:24:34.490Z,100.00
2023-05-18T02:27:01.643Z,100.00
2023-05-18T02:29:28.434Z,100.00
2023-05-18T02:31:55.210Z,100.00
2023-05-18T02:34:23.124Z,100.00
2023-05-18T02:36:49.765Z,100.00
2023-05-18T02:39:16.664Z,100.00
2023-05-18T02:41:43.203Z,100.00
2023-05-18T02:44:09.952Z,100.00
2023-05-18T02:46:36.590Z,100.00
2023-05-18T02:49:03.306Z,100.00
2023-05-18T02:51:31.464Z,100.00
2023-05-18T02:53:58.163Z,100.00
2023-05-18T02:56:24.980Z,100.00
2023-05-18T02:58:58.531Z,100.00
2023-05-18T03:01:27.257Z,100.00
2023-05-18T03:03:54.814Z,100.00
2023-05-18T03:06:26.940Z,100.00
2023-05-18T03:08:54.465Z,100.00
2023-05-18T03:11:22.842Z,100.00
2023-05-18T03:13:49.934Z,100.00
2023-05-18T03:16:16.756Z,100.00
2023-05-18T03:18:43.613Z,100.00
2023-05-18T03:21:13.755Z,100.00
2023-05-18T03:23:40.938Z,100.00
2023-05-18T03:26:10.789Z,100.00
2023-05-18T03:28:38.797Z,100.00
2023-05-18T03:31:05.962Z,100.00
2023-05-18T03:33:32.893Z,100.00
2023-05-18T03:36:04.117Z,100.00
2023-05-18T03:38:31.089Z,100.00
2023-05-18T03:40:58.038Z,100.00
2023-05-18T03:43:26.219Z,100.00
2023-05-18T03:45:53.675Z,100.00
2023-05-18T03:48:21.168Z,100.00
2023-05-18T03:50:49.119Z,100.00
2023-05-18T03:53:19.565Z,100.00
2023-05-18T03:55:46.645Z,100.00
2023-05-18T03:58:13.714Z,100.00
2023-05-18T04:00:40.684Z,100.00
2023-05-18T04:03:07.552Z,100.00
2023-05-18T04:05:34.265Z,100.00
2023-05-18T04:08:01.031Z,100.00
2023-05-18T04:10:27.898Z,100.00
2023-05-18T04:12:54.535Z,100.00
2023-05-18T04:15:21.520Z,100.00
2023-05-18T04:17:51.503Z,100.00
2023-05-18T04:20:18.711Z,100.00
2023-05-18T04:22:48.548Z,100.00
2023-05-18T04:25:16.183Z,100.00
2023-05-18T04:27:44.001Z,100.00
2023-05-18T04:30:12.064Z,100.00
2023-05-18T04:32:43.234Z,100.00
2023-05-18T04:35:12.022Z,100.00
2023-05-18T04:37:41.673Z,100.00
2023-05-18T04:40:13.035Z,100.00
2023-05-18T04:42:48.721Z,100.00
2023-05-18T04:45:19.680Z,100.00
2023-05-18T04:47:48.302Z,100.00
2023-05-18T04:50:16.327Z,100.00
2023-05-18T04:52:49.098Z,100.00
2023-05-18T04:55:26.172Z,100.00
2023-05-18T04:57:57.110Z,100.00
2023-05-18T05:00:29.292Z,100.00
2023-05-18T05:02:57.157Z,100.00
2023-05-18T05:05:25.483Z,99.85
2023-05-18T05:07:53.335Z,100.00
2023-05-18T05:10:21.030Z,97.39
2023-05-18T05:12:49.577Z,95.71
2023-05-18T05:15:17.107Z,95.25
2023-05-18T05:17:44.029Z,91.16
2023-05-18T05:20:11.137Z,89.13
2023-05-18T05:22:37.872Z,86.71
2023-05-18T05:25:06.217Z,85.60
2023-05-18T05:27:33.056Z,85.87
2023-05-18T05:29:59.765Z,83.87
2023-05-18T05:32:26.525Z,83.04
2023-05-18T05:34:53.393Z,82.95
2023-05-18T05:37:20.206Z,82.20
2023-05-18T05:39:46.957Z,82.02
2023-05-18T05:42:14.011Z,80.45
2023-05-18T05:44:41.200Z,79.26
2023-05-18T05:47:08.643Z,78.29
2023-05-18T05:49:35.739Z,78.35
2023-05-18T05:52:02.979Z,77.46
2023-05-18T05:54:29.661Z,77.08
2023-05-18T05:56:56.341Z,76.00
2023-05-18T05:59:22.989Z,74.62
2023-05-18T06:01:49.701Z,74.80
2023-05-18T06:04:16.491Z,75.04
2023-05-18T06:06:44.064Z,73.60
2023-05-18T06:09:11.131Z,73.61
2023-05-18T06:11:38.115Z,73.64
2023-05-18T06:14:05.017Z,71.96
2023-05-18T06:16:31.985Z,70.41
2023-05-18T06:18:58.936Z,70.00
2023-05-18T06:21:25.786Z,68.95
2023-05-18T06:23:52.497Z,68.46
2023-05-18T06:26:19.288Z,68.19
2023-05-18T06:28:46.012Z,68.55
2023-05-18T06:31:13.047Z,68.79
2023-05-18T06:33:40.104Z,67.92
2023-05-18T06:36:07.153Z,66.53
2023-05-18T06:38:34.004Z,66.83
2023-05-18T06:41:00.712Z,66.01
2023-05-18T06:43:28.569Z,66.76
2023-05-18T06:45:57.037Z,67.73
2023-05-18T06:48:26.876Z,67.46
2023-05-18T06:50:54.258Z,67.31
2023-05-18T06:53:21.010Z,65.74
2023-05-18T06:55:47.650Z,65.56
2023-05-18T06:58:14.362Z,65.38
2023-05-18T07:00:41.184Z,65.51
2023-05-18T07:03:08.545Z,66.09
2023-05-18T07:05:38.525Z,63.46
2023-05-18T07:08:06.332Z,63.58
2023-05-18T07:10:32.944Z,64.93
2023-05-18T07:12:59.723Z,64.23
2023-05-18T07:15:26.871Z,64.50
2023-05-18T07:17:53.643Z,64.35
2023-05-18T07:20:20.454Z,64.30
2023-05-18T07:22:47.098Z,64.06
2023-05-18T07:25:13.965Z,63.79
2023-05-18T07:27:40.572Z,62.65
2023-05-18T07:30:08.171Z,63.50
2023-05-18T07:32:35.055Z,64.90
2023-05-18T07:35:01.850Z,65.07
2023-05-18T07:37:28.543Z,64.81
2023-05-18T07:39:55.182Z,64.30
2023-05-18T07:42:21.938Z,62.45
2023-05-18T07:44:48.640Z,62.56
2023-05-18T07:47:15.521Z,61.15
2023-05-18T07:49:43.192Z,59.99
2023-05-18T07:52:09.834Z,60.90
2023-05-18T07:54:36.533Z,61.68
2023-05-18T07:57:04.364Z,59.25
2023-05-18T07:59:31.190Z,59.08
2023-05-18T08:01:59.350Z,60.16
2023-05-18T08:04:26.351Z,59.71
2023-05-18T08:06:54.936Z,60.41
2023-05-18T08:09:24.635Z,59.68
2023-05-18T08:11:51.854Z,58.06
2023-05-18T08:14:18.481Z,57.56
2023-05-18T08:16:45.470Z,58.69
2023-05-18T08:19:12.528Z,58.16
2023-05-18T08:21:39.237Z,57.90
2023-05-18T08:24:07.204Z,58.73
2023-05-18T08:26:33.821Z,56.65
2023-05-18T08:29:00.472Z,57.98
2023-05-18T08:31:27.167Z,57.11
2023-05-18T08:33:53.788Z,58.73
2023-05-18T08:36:20.463Z,58.87
2023-05-18T08:38:47.134Z,57.81
2023-05-18T08:41:48.490Z,55.81
2023-05-18T08:44:20.713Z,56.40
2023-05-18T08:46:51.392Z,58.77
2023-05-18T08:49:20.565Z,59.71
2023-05-18T08:51:54.191Z,58.45
2023-05-18T08:54:22.680Z,58.38
2023-05-18T08:56:49.700Z,57.14
2023-05-18T08:59:20.233Z,55.76
2023-05-18T09:01:47.055Z,57.13
2023-05-18T09:04:15.146Z,59.81
2023-05-18T09:06:42.830Z,58.44
2023-05-18T09:09:10.730Z,57.79
2023-05-18T09:11:39.314Z,57.12
2023-05-18T09:14:05.873Z,57.44
2023-05-18T09:16:33.919Z,58.19
2023-05-18T09:19:01.410Z,57.31
2023-05-18T09:21:28.347Z,57.42
2023-05-18T09:23:55.373Z,57.87
2023-05-18T09:26:22.684Z,58.92
2023-05-18T09:28:53.542Z,58.45
2023-05-18T09:31:22.275Z,57.85
2023-05-18T09:33:50.601Z,57.84
2023-05-18T09:36:18.006Z,58.52
2023-05-18T09:38:46.926Z,58.36
2023-05-18T09:41:17.260Z,58.89
2023-05-18T09:43:46.014Z,59.09
2023-05-18T09:46:13.692Z,57.53
2023-05-18T09:48:46.426Z,57.73
2023-05-18T09:51:17.013Z,56.21
2023-05-18T09:53:58.378Z,56.09
2023-05-18T09:56:27.030Z,56.79
2023-05-18T09:58:54.086Z,56.87
2023-05-18T10:01:20.891Z,57.45
2023-05-18T10:03:50.157Z,57.47
2023-05-18T10:06:21.496Z,57.17
2023-05-18T10:08:48.648Z,55.52
2023-05-18T10:11:18.366Z,55.05
2023-05-18T10:13:47.010Z,54.69
2023-05-18T10:16:15.699Z,53.69
2023-05-18T10:18:42.862Z,54.83
2023-05-18T10:21:12.725Z,56.19
2023-05-18T10:23:40.948Z,54.15
2023-05-18T10:26:10.181Z,53.82
2023-05-18T10:28:47.592Z,54.35
2023-05-18T10:31:16.918Z,53.38
2023-05-18T10:33:44.789Z,53.90
2023-05-18T10:36:12.101Z,53.71
2023-05-18T10:38:40.271Z,53.16
2023-05-18T10:41:08.438Z,51.71
2023-05-18T10:43:36.306Z,51.03
2023-05-18T10:46:05.480Z,50.58
2023-05-18T10:48:32.334Z,51.12
2023-05-18T10:50:59.350Z,50.33
2023-05-18T10:53:29.623Z,50.94
2023-05-18T10:55:56.379Z,52.03
2023-05-18T10:58:26.508Z,51.77
2023-05-18T11:00:57.397Z,54.12
2023-05-18T11:03:26.071Z,51.33
2023-05-18T11:06:12.951Z,50.59
2023-05-18T11:08:50.137Z,49.74
2023-05-18T11:11:19.465Z,49.41
2023-05-18T11:13:51.555Z,49.96
2023-05-18T11:16:19.556Z,51.05
2023-05-18T11:18:51.458Z,48.63
2023-05-18T11:21:24.826Z,48.27
2023-05-18T11:24:19.340Z,49.02
2023-05-18T11:26:57.378Z,50.38
2023-05-18T11:29:31.389Z,52.01
2023-05-18T11:31:58.414Z,51.57
2023-05-18T11:34:45.531Z,52.73
2023-05-18T11:37:17.227Z,50.56
2023-05-18T11:40:00.056Z,49.70
2023-05-18T11:42:33.079Z,48.51
2023-05-18T11:45:07.216Z,48.61
2023-05-18T11:47:34.718Z,50.15
2023-05-18T11:50:01.620Z,51.63
2023-05-18T11:52:28.558Z,52.24
2023-05-18T11:54:57.433Z,52.84
2023-05-18T11:57:26.765Z,51.46
2023-05-18T11:59:57.979Z,50.33
2023-05-18T12:02:27.511Z,49.94
2023-05-18T12:04:56.443Z,48.69
2023-05-18T12:07:28.124Z,47.99
2023-05-18T12:10:01.293Z,49.21
2023-05-18T12:12:28.889Z,49.08
2023-05-18T12:14:58.081Z,49.30
2023-05-18T12:17:41.351Z,48.77
2023-05-18T12:20:15.604Z,48.77
2023-05-18T12:22:44.426Z,49.89
2023-05-18T12:25:11.739Z,48.77
2023-05-18T12:27:43.988Z,49.17
2023-05-18T12:30:14.122Z,49.59
2023-05-18T12:32:45.337Z,48.47
2023-05-18T12:35:12.162Z,48.66
2023-05-18T12:37:46.672Z,49.46
2023-05-18T12:40:18.481Z,49.96
2023-05-18T12:42:52.740Z,50.85
2023-05-18T12:45:22.027Z,50.43
2023-05-18T12:47:54.526Z,48.87
2023-05-18T12:50:22.957Z,49.65
2023-05-18T12:52:50.564Z,49.39
2023-05-18T12:55:25.428Z,50.14
2023-05-18T12:58:07.435Z,49.83
2023-05-18T13:00:35.180Z,49.22
2023-05-18T13:03:11.699Z,50.50
2023-05-18T13:05:45.852Z,49.37
2023-05-18T13:08:19.131Z,50.47
2023-05-18T13:10:47.025Z,49.64
2023-05-18T13:13:16.981Z,48.77
2023-05-18T13:15:44.373Z,49.79
2023-05-18T13:18:12.067Z,49.74
2023-05-18T13:20:40.003Z,51.18
2023-05-18T13:23:12.384Z,52.16
2023-05-18T13:25:43.296Z,51.77
2023-05-18T13:28:11.491Z,51.49
2023-05-18T13:30:39.718Z,52.61
2023-05-18T13:33:08.705Z,52.87
2023-05-18T13:35:40.816Z,50.94
2023-05-18T13:38:07.983Z,51.17
2023-05-18T13:40:34.638Z,51.04
2023-05-18T13:43:01.332Z,49.99
2023-05-18T13:45:27.983Z,49.76
2023-05-18T13:47:54.785Z,51.00
2023-05-18T13:50:23.129Z,51.30
2023-05-18T13:52:50.161Z,50.22
2023-05-18T13:55:16.798Z,50.13
2023-05-18T13:57:45.045Z,51.03
2023-05-18T14:00:13.712Z,50.68
2023-05-18T14:02:41.768Z,50.51
2023-05-18T14:05:09.588Z,52.61
2023-05-18T14:07:41.719Z,52.35
2023-05-18T14:10:09.932Z,53.56
2023-05-18T14:12:37.264Z,53.16
2023-05-18T14:15:05.207Z,52.72
2023-05-18T14:17:32.989Z,53.38
2023-05-18T14:19:59.982Z,51.14
2023-05-18T14:22:26.738Z,51.17
2023-05-18T14:24:54.072Z,50.96
2023-05-18T14:27:20.859Z,49.81
2023-05-18T14:29:48.768Z,51.26
2023-05-18T14:32:15.670Z,51.59
2023-05-18T14:34:42.358Z,52.16
2023-05-18T14:37:09.283Z,51.25
2023-05-18T14:39:36.253Z,52.22
2023-05-18T14:42:02.902Z,52.73
2023-05-18T14:44:29.830Z,51.82
2023-05-18T14:46:56.828Z,53.20
2023-05-18T14:49:23.716Z,51.93
2023-05-18T14:51:50.410Z,52.14
2023-05-18T14:54:18.302Z,51.96
2023-05-18T14:56:45.340Z,53.56
2023-05-18T14:59:12.002Z,52.27
2023-05-18T15:01:38.543Z,51.78
2023-05-18T15:04:05.756Z,52.69
2023-05-18T15:06:33.416Z,52.38
2023-05-18T15:09:00.798Z,52.82
2023-05-18T15:11:27.349Z,53.18
2023-05-18T15:13:54.095Z,53.48
2023-05-18T15:16:21.004Z,55.90
2023-05-18T15:18:47.611Z,54.85
2023-05-18T15:21:14.558Z,54.23
2023-05-18T15:23:41.250Z,54.73
2023-05-18T15:26:09.286Z,54.98
2023-05-18T15:28:36.163Z,55.32
2023-05-18T15:31:02.913Z,56.52
2023-05-18T15:33:29.671Z,55.88
2023-05-18T15:35:56.377Z,55.75
2023-05-18T15:38:22.971Z,54.89
2023-05-18T15:40:50.600Z,53.11
2023-05-18T15:43:17.632Z,54.19
2023-05-18T15:45:44.361Z,54.38
2023-05-18T15:48:11.418Z,54.21
2023-05-18T15:50:38.297Z,54.39
2023-05-18T15:53:04.975Z,55.45
2023-05-18T15:55:31.799Z,55.03
2023-05-18T15:57:58.594Z,55.75
2023-05-18T16:00:26.504Z,55.76
2023-05-18T16:02:53.304Z,56.37
2023-05-18T16:05:20.037Z,56.12
2023-05-18T16:07:46.983Z,57.13
2023-05-18T16:10:14.679Z,58.23
2023-05-18T16:12:41.429Z,58.05
2023-05-18T16:15:08.504Z,58.39
2023-05-18T16:17:35.251Z,58.29
2023-05-18T16:20:03.831Z,57.83
2023-05-18T16:22:30.905Z,57.10
2023-05-18T16:24:59.163Z,56.28
2023-05-18T16:27:26.157Z,55.69
2023-05-18T16:29:53.176Z,56.00
2023-05-18T16:32:19.881Z,55.89
2023-05-18T16:34:46.505Z,56.55
2023-05-18T16:37:13.173Z,56.88
2023-05-18T16:39:39.971Z,55.81
2023-05-18T16:42:07.884Z,56.11
2023-05-18T16:44:36.346Z,56.80
2023-05-18T16:47:03.102Z,57.49
2023-05-18T16:49:30.559Z,57.52
2023-05-18T16:51:57.232Z,57.68
2023-05-18T16:54:23.809Z,58.81
2023-05-18T16:56:50.390Z,59.87
2023-05-18T16:59:17.675Z,59.64
2023-05-18T17:01:44.608Z,58.56
2023-05-18T17:04:11.345Z,59.20
2023-05-18T17:06:38.304Z,59.59
2023-05-18T17:09:06.418Z,59.41
2023-05-18T17:11:33.490Z,60.23
2023-05-18T17:14:01.597Z,60.43
2023-05-18T17:16:28.740Z,60.92
2023-05-18T17:18:56.237Z,60.84
2023-05-18T17:21:24.226Z,61.09
2023-05-18T17:23:51.108Z,59.43
2023-05-18T17:26:17.813Z,59.91
2023-05-18T17:28:44.477Z,60.15
2023-05-18T17:31:11.228Z,61.30
2023-05-18T17:33:37.884Z,61.95
2023-05-18T17:36:04.678Z,62.75
2023-05-18T17:38:31.386Z,63.22
2023-05-18T17:40:57.870Z,63.51
2023-05-18T17:43:24.571Z,63.57
2023-05-18T17:45:51.355Z,63.74
2023-05-18T17:48:17.967Z,64.37
2023-05-18T17:50:45.578Z,64.25
2023-05-18T17:53:12.430Z,64.63
2023-05-18T17:55:39.321Z,65.50
2023-05-18T17:58:06.239Z,65.60
2023-05-18T18:00:33.284Z,65.70
2023-05-18T18:03:00.054Z,65.54
2023-05-18T18:05:26.808Z,65.69
2023-05-18T18:07:54.302Z,65.83
2023-05-18T18:10:21.357Z,66.38
2023-05-18T18:12:47.948Z,66.58
2023-05-18T18:15:14.699Z,66.69
2023-05-18T18:17:41.330Z,66.69
2023-05-18T18:20:09.958Z,67.26
2023-05-18T18:22:36.703Z,67.68
2023-05-18T18:25:03.528Z,67.09
2023-05-18T18:27:30.131Z,67.42
2023-05-18T18:29:56.800Z,67.83
2023-05-18T18:32:23.515Z,67.53
2023-05-18T18:34:50.342Z,67.92
2023-05-18T18:37:17.175Z,67.89
2023-05-18T18:39:43.782Z,68.27
2023-05-18T18:42:10.545Z,69.00
2023-05-18T18:44:37.288Z,69.05
2023-05-18T18:47:04.210Z,69.23
2023-05-18T18:49:31.076Z,69.49
2023-05-18T18:51:58.978Z,70.00
2023-05-18T18:54:26.478Z,69.89
2023-05-18T18:56:53.257Z,70.10
2023-05-18T18:59:19.992Z,70.75
2023-05-18T19:01:46.900Z,69.42
2023-05-18T19:04:13.612Z,70.14
2023-05-18T19:06:40.293Z,70.11
2023-05-18T19:09:07.014Z,70.01
2023-05-18T19:11:33.662Z,70.02
2023-05-18T19:14:00.311Z,69.97
2023-05-18T19:16:27.347Z,69.76
2023-05-18T19:18:54.315Z,69.86
2023-05-18T19:21:21.580Z,69.39
2023-05-18T19:23:48.212Z,69.55
2023-05-18T19:26:14.960Z,69.25
2023-05-18T19:28:42.263Z,69.58
2023-05-18T19:31:11.979Z,69.43
2023-05-18T19:33:38.738Z,69.85
2023-05-18T19:36:05.630Z,69.79
2023-05-18T19:38:32.211Z,69.60
2023-05-18T19:40:58.940Z,69.54
2023-05-18T19:43:25.606Z,70.11
2023-05-18T19:45:52.473Z,69.59
2023-05-18T19:48:19.080Z,69.81
2023-05-18T19:50:45.773Z,69.56
2023-05-18T19:53:12.323Z,69.72
2023-05-18T19:55:38.918Z,69.65
2023-05-18T19:58:06.089Z,68.96
2023-05-18T20:00:33.638Z,70.10
2023-05-18T20:03:02.746Z,70.43
2023-05-18T20:05:29.922Z,71.23
2023-05-18T20:07:58.219Z,72.12
2023-05-18T20:10:25.265Z,72.34
2023-05-18T20:12:52.252Z,72.85
2023-05-18T20:15:19.184Z,71.99
2023-05-18T20:17:46.180Z,72.60
2023-05-18T20:20:12.874Z,72.94
2023-05-18T20:22:39.721Z,73.64
2023-05-18T20:25:06.963Z,73.08
2023-05-18T20:27:33.580Z,73.72
2023-05-18T20:30:00.877Z,73.48
2023-05-18T20:32:27.762Z,74.42
2023-05-18T20:34:54.410Z,74.33
2023-05-18T20:37:21.216Z,73.81
2023-05-18T20:39:50.948Z,74.23
2023-05-18T20:42:22.023Z,73.51
2023-05-18T20:44:51.580Z,73.68
2023-05-18T20:47:20.604Z,73.92
2023-05-18T20:49:48.198Z,73.76
2023-05-18T20:52:15.226Z,73.83
2023-05-18T20:54:41.924Z,72.91
2023-05-18T20:57:08.776Z,73.00
2023-05-18T20:59:35.696Z,74.27
2023-05-18T21:02:02.778Z,74.85
2023-05-18T21:04:30.862Z,73.84
2023-05-18T21:06:57.721Z,74.68
2023-05-18T21:09:24.530Z,74.86
2023-05-18T21:11:51.262Z,74.67
2023-05-18T21:14:17.926Z,73.70
2023-05-18T21:16:44.865Z,74.14
2023-05-18T21:19:11.711Z,74.19
2023-05-18T21:21:38.778Z,73.50
2023-05-18T21:24:05.578Z,73.67
2023-05-18T21:26:32.606Z,73.33
2023-05-18T21:28:59.187Z,73.80
2023-05-18T21:31:26.343Z,73.67
2023-05-18T21:33:53.142Z,73.81
2023-05-18T21:36:35.055Z,73.40
2023-05-18T21:39:04.110Z,72.91
2023-05-18T21:41:31.079Z,72.58
2023-05-18T21:43:58.083Z,72.98
2023-05-18T21:46:24.951Z,72.82
2023-05-18T21:48:51.872Z,73.50
2023-05-18T21:51:18.488Z,72.52
2023-05-18T21:53:45.116Z,72.58
2023-05-18T21:56:11.942Z,73.08
2023-05-18T21:58:38.576Z,73.03
2023-05-18T22:01:05.386Z,72.71
2023-05-18T22:03:32.097Z,73.73
2023-05-18T22:05:58.772Z,75.17
2023-05-18T22:08:25.655Z,76.66
2023-05-18T22:10:52.465Z,77.61
2023-05-18T22:13:19.115Z,77.72
2023-05-18T22:15:45.630Z,77.92
2023-05-18T22:18:12.316Z,77.61
2023-05-18T22:20:39.191Z,77.59
2023-05-18T22:23:06.133Z,76.87
2023-05-18T22:25:32.780Z,77.34
2023-05-18T22:27:59.607Z,78.18
2023-05-18T22:30:28.497Z,77.25
2023-05-18T22:32:55.263Z,78.95
2023-05-18T22:35:21.977Z,79.07
2023-05-18T22:37:48.611Z,79.48
2023-05-18T22:40:15.245Z,79.69
2023-05-18T22:42:42.125Z,80.16
2023-05-18T22:45:10.194Z,80.53
2023-05-18T22:47:39.193Z,81.28
2023-05-18T22:50:07.301Z,82.18
2023-05-18T22:52:35.096Z,82.52
2023-05-18T22:55:01.935Z,82.99
2023-05-18T22:57:28.514Z,84.22
2023-05-18T22:59:55.132Z,84.77
2023-05-18T23:02:21.726Z,85.77
2023-05-18T23:04:48.431Z,86.16
2023-05-18T23:07:15.076Z,87.21
2023-05-18T23:09:42.594Z,87.82
2023-05-18T23:12:10.361Z,88.92
2023-05-18T23:14:37.968Z,88.35
2023-05-18T23:17:04.974Z,88.40
2023-05-18T23:19:31.982Z,88.25
2023-05-18T23:21:58.562Z,87.32
2023-05-18T23:24:25.359Z,86.22
2023-05-18T23:26:52.095Z,86.31
2023-05-18T23:29:18.791Z,89.21
2023-05-18T23:31:45.639Z,88.21
2023-05-18T23:34:12.536Z,87.81
2023-05-18T23:36:42.684Z,86.86
2023-05-18T23:39:09.802Z,86.61
2023-05-18T23:41:37.101Z,86.36
2023-05-18T23:44:04.339Z,86.42
2023-05-18T23:46:31.908Z,86.31
2023-05-18T23:48:59.970Z,86.80
2023-05-18T23:51:29.970Z,86.77
2023-05-18T23:53:58.068Z,87.07
2023-05-18T23:56:25.079Z,87.08
2023-05-18T23:58:52.088Z,87.70
